Time;durP1;ratioP1;P1;durP2;ratioP2;P2;SDS_P1;SDS_P2;PMS_P1;PMS_P2;Temp;Humidity;BMP_temperature;BMP_pressure;BME280_temperature;BME280_humidity;BME280_pressure;Samples;Min_cycle;Max_cycle;Signal;HPM_P1;HPM_P2
2021/07/20 00:00:51;;;;;;;5.30;2.90;;;22.30;78.30;;;;;;6277040;28;20230;-65
2021/07/20 00:03:54;;;;;;;4.83;3.40;;;22.30;78.40;;;;;;6276906;28;20263;-63
2021/07/20 00:07:19;;;;;;;4.20;2.50;;;22.30;78.60;;;;;;6275012;28;20219;-63
2021/07/20 00:10:25;;;;;;;6.30;3.33;;;22.30;78.80;;;;;;6276643;28;20726;-65
2021/07/20 00:13:28;;;;;;;5.73;2.73;;;22.20;79.40;;;;;;6276562;28;20243;-60
2021/07/20 00:16:31;;;;;;;3.70;3.20;;;22.20;79.80;;;;;;6276510;28;20227;-59
2021/07/20 00:19:35;;;;;;;5.30;2.73;;;22.10;80.20;;;;;;6276339;28;20678;-63
2021/07/20 00:22:39;;;;;;;5.00;3.07;;;22.00;80.30;;;;;;6276552;28;20238;-64
2021/07/20 00:25:43;;;;;;;4.43;3.00;;;22.00;80.20;;;;;;6275902;28;20227;-61
2021/07/20 00:28:47;;;;;;;6.03;2.77;;;21.90;80.70;;;;;;6272542;28;20281;-61
2021/07/20 00:31:50;;;;;;;4.03;2.57;;;21.90;81.90;;;;;;6273167;28;20291;-60
2021/07/20 00:34:53;;;;;;;2.90;2.70;;;21.80;82.40;;;;;;6273846;28;20239;-60
2021/07/20 00:37:58;;;;;;;7.73;3.57;;;21.80;83.10;;;;;;6274080;28;20593;-61
2021/07/20 00:41:01;;;;;;;4.57;3.20;;;21.80;83.50;;;;;;6292642;28;20224;-61
2021/07/20 00:44:04;;;;;;;5.80;2.83;;;21.80;83.80;;;;;;6263656;28;20220;-61
2021/07/20 00:47:07;;;;;;;6.80;2.60;;;21.70;84.10;;;;;;6263369;28;20232;-61
2021/07/20 00:50:14;;;;;;;2.63;2.43;;;21.60;84.20;;;;;;6261884;28;20227;-61
2021/07/20 00:53:18;;;;;;;3.60;2.90;;;21.60;84.60;;;;;;6248566;28;20564;-60
2021/07/20 00:56:22;;;;;;;4.37;2.80;;;21.50;84.80;;;;;;6260858;28;20229;-60
2021/07/20 00:59:26;;;;;;;5.07;2.97;;;21.30;85.80;;;;;;6270837;28;20228;-61
2021/07/20 01:02:29;;;;;;;3.17;2.87;;;21.40;86.10;;;;;;6274975;28;20236;-60
2021/07/20 01:05:32;;;;;;;4.20;3.80;;;21.40;86.30;;;;;;6275831;28;20297;-60
2021/07/20 01:08:40;;;;;;;4.30;3.00;;;21.50;86.40;;;;;;6275504;28;20314;-61
2021/07/20 01:11:43;;;;;;;4.40;2.93;;;21.40;86.70;;;;;;6275472;28;20231;-61
2021/07/20 01:14:47;;;;;;;3.40;3.07;;;21.50;86.80;;;;;;6275159;28;20588;-61
2021/07/20 01:17:53;;;;;;;3.60;2.43;;;21.40;86.70;;;;;;6275191;28;20553;-61
2021/07/20 01:20:58;;;;;;;4.13;3.73;;;21.40;88.10;;;;;;6275189;28;20235;-61
2021/07/20 01:24:06;;;;;;;4.53;3.10;;;21.40;87.80;;;;;;6275229;28;20239;-61
2021/07/20 01:27:11;;;;;;;4.80;3.43;;;21.40;87.70;;;;;;6274905;28;20692;-61
2021/07/20 01:30:17;;;;;;;4.00;3.10;;;21.30;88.10;;;;;;6274724;28;20533;-61
2021/07/20 01:33:21;;;;;;;4.60;3.37;;;21.30;88.50;;;;;;6274683;28;20685;-61
2021/07/20 01:36:26;;;;;;;4.17;3.07;;;21.30;88.50;;;;;;6275022;28;20235;-60
2021/07/20 01:39:30;;;;;;;4.80;3.43;;;21.30;88.80;;;;;;6274697;28;20242;-60
2021/07/20 01:42:34;;;;;;;7.07;3.47;;;21.20;89.10;;;;;;6274814;28;20266;-60
2021/07/20 01:45:40;;;;;;;3.27;2.97;;;21.10;89.60;;;;;;6274341;28;20247;-60
2021/07/20 01:48:47;;;;;;;6.50;4.83;;;21.10;90.10;;;;;;6274570;28;20620;-61
2021/07/20 01:51:51;;;;;;;4.67;3.30;;;20.90;90.60;;;;;;6274639;28;20231;-60
2021/07/20 01:54:56;;;;;;;4.67;3.43;;;20.90;91.00;;;;;;6274736;28;20227;-58
2021/07/20 01:58:00;;;;;;;3.53;3.23;;;20.80;91.30;;;;;;6264952;28;20235;-59
2021/07/20 02:01:04;;;;;;;4.87;2.80;;;20.80;91.50;;;;;;6274440;28;20253;-59
2021/07/20 02:04:25;;;;;;;6.93;3.23;;;20.80;91.60;;;;;;6273340;28;20231;-58
2021/07/20 02:10:54;;;;;;;3.80;3.50;;;20.70;92.00;;;;;;6273837;28;20228;-59
2021/07/20 02:14:01;;;;;;;4.90;3.63;;;20.80;92.20;;;;;;6273817;28;20243;-59
2021/07/20 02:17:05;;;;;;;4.77;3.20;;;20.70;92.40;;;;;;6272983;28;20281;-60
2021/07/20 02:20:14;;;;;;;3.87;3.50;;;20.70;92.40;;;;;;6249179;28;20273;-60
2021/07/20 02:23:17;;;;;;;7.10;3.00;;;20.70;92.60;;;;;;6249022;28;20224;-59
2021/07/20 02:26:23;;;;;;;5.00;4.20;;;20.70;92.80;;;;;;6252308;28;20653;-59
2021/07/20 02:29:27;;;;;;;4.50;3.57;;;20.70;92.80;;;;;;6273679;28;20696;-58
2021/07/20 02:32:32;;;;;;;7.03;3.63;;;20.80;92.90;;;;;;6274000;28;20243;-58
2021/07/20 02:35:38;;;;;;;6.67;3.97;;;20.80;93.20;;;;;;6274043;28;20238;-59
2021/07/20 02:38:42;;;;;;;4.67;3.23;;;20.80;93.40;;;;;;6273739;28;20231;-59
2021/07/20 02:41:49;;;;;;;3.50;3.07;;;20.80;93.20;;;;;;6273632;28;20227;-59
2021/07/20 02:44:54;;;;;;;3.57;3.23;;;20.70;93.40;;;;;;6273497;28;20618;-59
2021/07/20 02:47:58;;;;;;;7.07;4.50;;;20.80;93.60;;;;;;6224821;28;20276;-59
2021/07/20 02:51:02;;;;;;;6.57;3.53;;;20.70;93.60;;;;;;6224743;28;20262;-59
2021/07/20 02:54:06;;;;;;;6.90;4.30;;;20.60;93.70;;;;;;6224402;28;20674;-60
2021/07/20 02:57:12;;;;;;;4.30;3.87;;;20.60;93.90;;;;;;6224587;28;20299;-59
2021/07/20 03:00:17;;;;;;;4.70;4.30;;;20.70;94.30;;;;;;6215194;28;20239;-60
2021/07/20 03:03:20;;;;;;;5.43;3.77;;;20.80;94.40;;;;;;6224227;28;20743;-58
2021/07/20 03:06:25;;;;;;;5.83;3.53;;;20.80;94.30;;;;;;6224703;28;20233;-59
2021/07/20 03:09:30;;;;;;;6.83;3.50;;;20.90;94.20;;;;;;6224272;28;20241;-59
2021/07/20 03:12:36;;;;;;;5.77;3.43;;;21.10;94.40;;;;;;6224515;28;20237;-59
2021/07/20 03:15:40;;;;;;;4.80;4.40;;;21.10;94.20;;;;;;6227932;28;20232;-59
2021/07/20 03:18:47;;;;;;;6.43;3.97;;;21.20;94.10;;;;;;6229072;28;20224;-60
2021/07/20 03:21:53;;;;;;;4.57;3.50;;;21.20;94.20;;;;;;6228520;28;20229;-59
2021/07/20 03:24:59;;;;;;;4.20;3.60;;;21.20;94.20;;;;;;6228829;28;20282;-59
2021/07/20 03:28:05;;;;;;;5.63;3.60;;;21.20;94.40;;;;;;6228617;28;20899;-59
2021/07/20 03:31:09;;;;;;;6.00;3.53;;;21.20;94.50;;;;;;6228843;28;20622;-59
2021/07/20 03:34:12;;;;;;;6.13;3.30;;;21.10;94.50;;;;;;6228590;28;20320;-57
2021/07/20 03:37:16;;;;;;;5.73;3.73;;;21.10;94.60;;;;;;6228549;28;20236;-58
2021/07/20 03:40:21;;;;;;;5.33;3.23;;;21.10;94.60;;;;;;6228400;28;20229;-58
2021/07/20 03:43:26;;;;;;;7.00;3.80;;;21.10;94.80;;;;;;6228366;28;20682;-59
2021/07/20 03:46:29;;;;;;;5.90;3.70;;;21.20;94.70;;;;;;6253306;28;20699;-58
2021/07/20 03:49:35;;;;;;;5.40;4.43;;;21.10;94.60;;;;;;6277711;28;20297;-58
2021/07/20 03:52:40;;;;;;;4.67;3.67;;;21.10;94.70;;;;;;6277364;28;20250;-58
2021/07/20 03:55:47;;;;;;;4.10;3.70;;;21.10;95.00;;;;;;6277254;28;20235;-58
2021/07/20 03:58:56;;;;;;;4.77;3.23;;;21.10;94.90;;;;;;6277153;28;20617;-59
2021/07/20 04:02:02;;;;;;;5.23;3.63;;;21.10;95.00;;;;;;6277158;28;20230;-58
2021/07/20 04:05:06;;;;;;;3.93;3.53;;;21.20;95.00;;;;;;6277214;28;20207;-59
2021/07/20 04:08:13;;;;;;;4.20;3.60;;;21.20;94.90;;;;;;6277307;28;20302;-58
2021/07/20 04:11:17;;;;;;;5.40;4.30;;;21.20;95.10;;;;;;6277005;28;20223;-58
2021/07/20 04:14:22;;;;;;;4.93;4.13;;;21.20;95.60;;;;;;6276706;28;20680;-58
2021/07/20 04:17:26;;;;;;;4.87;3.87;;;21.20;95.20;;;;;;6277262;28;21099;-59
2021/07/20 04:20:29;;;;;;;6.73;4.33;;;21.20;95.30;;;;;;6276672;28;20232;-58
2021/07/20 04:23:34;;;;;;;6.50;4.10;;;21.20;95.40;;;;;;6275254;28;20224;-59
2021/07/20 04:26:38;;;;;;;5.33;4.20;;;21.10;95.30;;;;;;6262203;28;20247;-59
2021/07/20 04:29:43;;;;;;;4.97;4.00;;;21.20;95.40;;;;;;6264594;28;20707;-59
2021/07/20 04:32:48;;;;;;;5.23;3.80;;;21.00;95.70;;;;;;6263590;28;20224;-58
2021/07/20 04:35:52;;;;;;;6.50;4.37;;;21.20;96.00;;;;;;6266572;28;20224;-60
2021/07/20 04:39:00;;;;;;;5.07;4.40;;;21.20;96.00;;;;;;6257348;28;20661;-60
2021/07/20 04:42:05;;;;;;;4.93;4.43;;;21.20;95.90;;;;;;6271827;28;20223;-59
2021/07/20 04:45:11;;;;;;;7.20;5.57;;;21.20;95.70;;;;;;6284540;28;20222;-60
2021/07/20 04:48:16;;;;;;;7.17;6.43;;;21.30;95.80;;;;;;6274250;28;20693;-60
2021/07/20 04:51:20;;;;;;;6.17;5.10;;;21.30;95.40;;;;;;6273013;28;20223;-60
2021/07/20 04:54:24;;;;;;;7.93;6.63;;;21.40;95.60;;;;;;6264395;28;20712;-61
2021/07/20 04:57:27;;;;;;;7.37;5.63;;;21.40;95.50;;;;;;6251098;28;20235;-61
2021/07/20 05:00:32;;;;;;;6.97;4.67;;;21.50;95.30;;;;;;6250824;28;20227;-60
2021/07/20 05:03:39;;;;;;;6.87;4.63;;;21.50;95.50;;;;;;6251135;28;20247;-61
2021/07/20 05:06:47;;;;;;;7.30;4.43;;;21.50;95.60;;;;;;6251065;28;20228;-60
2021/07/20 05:09:51;;;;;;;7.57;4.70;;;21.50;95.60;;;;;;6246359;28;20286;-61
2021/07/20 05:12:56;;;;;;;5.13;4.00;;;21.60;95.60;;;;;;6250485;28;20585;-61
2021/07/20 05:16:02;;;;;;;7.63;4.57;;;21.70;95.40;;;;;;6250803;28;20238;-61
2021/07/20 05:19:05;;;;;;;8.70;5.17;;;22.00;95.00;;;;;;6267678;28;20235;-60
2021/07/20 05:22:09;;;;;;;6.77;4.30;;;22.10;94.60;;;;;;6275323;28;20564;-60
2021/07/20 05:25:14;;;;;;;6.00;4.87;;;22.10;94.50;;;;;;6275030;28;20227;-60
2021/07/20 05:28:18;;;;;;;8.63;4.30;;;22.10;94.40;;;;;;6275252;28;20223;-61
2021/07/20 05:31:25;;;;;;;6.17;4.30;;;22.20;94.50;;;;;;6274808;28;20231;-61
2021/07/20 05:34:29;;;;;;;8.17;5.13;;;22.40;94.00;;;;;;6275344;28;20242;-61
2021/07/20 05:37:35;;;;;;;6.50;4.40;;;22.60;93.20;;;;;;6273773;28;20714;-61
2021/07/20 05:40:38;;;;;;;5.50;4.60;;;22.90;93.10;;;;;;6274715;28;20223;-61
2021/07/20 05:43:42;;;;;;;5.07;4.57;;;23.00;92.80;;;;;;6274530;28;20236;-60
2021/07/20 05:46:48;;;;;;;5.60;4.07;;;23.00;92.80;;;;;;6274175;28;20663;-61
2021/07/20 05:49:51;;;;;;;7.60;4.53;;;23.10;93.00;;;;;;6274737;28;20770;-61
2021/07/20 05:52:59;;;;;;;11.63;4.83;;;22.90;92.80;;;;;;6274291;28;20688;-60
2021/07/20 05:56:04;;;;;;;9.50;4.90;;;22.90;93.00;;;;;;6274101;28;20230;-61
2021/07/20 05:59:08;;;;;;;5.93;5.30;;;22.90;93.00;;;;;;6249880;28;20219;-60
2021/07/20 06:02:14;;;;;;;7.80;4.40;;;22.90;92.90;;;;;;6249613;28;20607;-61
2021/07/20 06:05:19;;;;;;;10.40;5.17;;;22.80;92.70;;;;;;6250005;28;20184;-61
2021/07/20 06:08:24;;;;;;;12.10;5.43;;;22.70;92.90;;;;;;6249871;28;20228;-61
2021/07/20 06:11:28;;;;;;;5.70;5.20;;;22.40;92.90;;;;;;6240632;28;20247;-62
2021/07/20 06:14:32;;;;;;;7.87;5.07;;;22.20;93.90;;;;;;6249735;28;20251;-61
2021/07/20 06:17:36;;;;;;;7.73;5.10;;;22.20;94.90;;;;;;6249593;28;20235;-61
2021/07/20 06:20:44;;;;;;;7.73;5.50;;;22.20;95.50;;;;;;6249493;28;20692;-61
2021/07/20 06:23:49;;;;;;;7.17;5.10;;;22.30;95.90;;;;;;6249059;28;20578;-61
2021/07/20 06:26:53;;;;;;;6.30;4.87;;;22.30;96.70;;;;;;6250357;28;20247;-61
2021/07/20 06:29:57;;;;;;;8.33;5.40;;;22.20;96.80;;;;;;6280443;28;20227;-61
2021/07/20 06:33:02;;;;;;;7.33;5.33;;;22.20;97.30;;;;;;6297093;28;20646;-61
2021/07/20 06:36:06;;;;;;;6.80;5.60;;;22.20;96.70;;;;;;6297325;28;20722;-61
2021/07/20 06:39:09;;;;;;;8.23;6.17;;;22.30;97.20;;;;;;6275539;28;20613;-61
2021/07/20 06:42:13;;;;;;;10.23;6.93;;;22.30;97.30;;;;;;6261252;28;20223;-61
2021/07/20 06:45:17;;;;;;;11.37;7.77;;;22.30;97.40;;;;;;6271400;28;20254;-61
2021/07/20 06:48:23;;;;;;;10.70;7.43;;;22.30;98.10;;;;;;6274472;28;20242;-61
2021/07/20 06:51:29;;;;;;;11.00;7.53;;;22.20;97.70;;;;;;6278915;28;20254;-61
2021/07/20 06:54:33;;;;;;;10.57;7.03;;;22.20;98.10;;;;;;6278600;28;20704;-61
2021/07/20 06:57:39;;;;;;;12.07;8.20;;;22.20;98.10;;;;;;6278645;28;20231;-61
2021/07/20 07:00:47;;;;;;;9.87;6.77;;;22.40;98.20;;;;;;6278543;28;20301;-61
2021/07/20 07:03:59;;;;;;;9.27;7.40;;;22.40;98.20;;;;;;6278702;28;20235;-61
2021/07/20 07:07:03;;;;;;;12.10;7.83;;;22.50;98.00;;;;;;6278435;28;20696;-61
2021/07/20 07:10:08;;;;;;;18.80;7.90;;;22.40;97.40;;;;;;6278359;28;20227;-61
2021/07/20 07:13:13;;;;;;;12.90;7.17;;;22.50;97.40;;;;;;6278051;28;20234;-61
2021/07/20 07:16:19;;;;;;;11.73;6.90;;;22.50;97.80;;;;;;6273716;28;20756;-61
2021/07/20 07:19:24;;;;;;;9.93;6.67;;;22.90;97.90;;;;;;6278284;28;20239;-61
2021/07/20 07:22:29;;;;;;;8.97;6.40;;;24.10;97.20;;;;;;6277867;28;20242;-61
2021/07/20 07:25:32;;;;;;;8.00;5.80;;;26.30;94.30;;;;;;6278282;28;20242;-60
2021/07/20 07:28:36;;;;;;;8.90;5.00;;;28.80;86.90;;;;;;6277835;28;20231;-60
2021/07/20 07:31:43;;;;;;;7.30;5.20;;;30.90;76.60;;;;;;6278550;28;20246;-61
2021/07/20 07:34:48;;;;;;;4.63;3.55;;;32.10;68.80;;;;;;6277908;28;20237;-62
2021/07/20 07:37:54;;;;;;;5.95;4.65;;;33.70;61.40;;;;;;6277823;28;20593;-61
2021/07/20 07:40:58;;;;;;;7.43;4.32;;;34.50;56.90;;;;;;6277758;28;20238;-62
2021/07/20 07:44:02;;;;;;;5.07;3.83;;;35.80;54.30;;;;;;6277523;28;20226;-62
2021/07/20 07:47:06;;;;;;;4.20;3.45;;;36.50;50.40;;;;;;6277420;28;20239;-62
2021/07/20 07:50:15;;;;;;;6.60;3.42;;;37.00;46.50;;;;;;6277336;28;20202;-61
2021/07/20 07:53:18;;;;;;;3.03;2.75;;;37.30;45.20;;;;;;6276989;28;20231;-61
2021/07/20 07:56:21;;;;;;;3.65;2.65;;;36.10;45.50;;;;;;6277316;28;20231;-62
2021/07/20 07:59:27;;;;;;;2.47;1.98;;;34.50;45.80;;;;;;6277414;28;20227;-62
2021/07/20 08:02:35;;;;;;;2.40;2.17;;;33.00;46.60;;;;;;6276673;28;20251;-62
2021/07/20 08:05:42;;;;;;;2.10;1.90;;;32.10;47.90;;;;;;6277290;28;20237;-62
2021/07/20 08:08:46;;;;;;;3.22;1.90;;;32.90;47.50;;;;;;6276912;28;20249;-62
2021/07/20 08:11:51;;;;;;;3.78;2.33;;;33.80;46.60;;;;;;6276978;28;20235;-62
2021/07/20 08:14:57;;;;;;;3.55;2.40;;;34.30;45.50;;;;;;6276958;28;20230;-62
2021/07/20 08:18:01;;;;;;;3.33;2.17;;;34.30;45.20;;;;;;6276874;28;20688;-63
2021/07/20 08:21:06;;;;;;;2.08;1.70;;;34.50;44.10;;;;;;6272338;28;20245;-63
2021/07/20 08:24:10;;;;;;;2.35;2.15;;;34.40;42.80;;;;;;6276287;28;20234;-63
2021/07/20 08:27:16;;;;;;;2.92;2.55;;;33.70;42.20;;;;;;6275778;28;20226;-62
2021/07/20 08:30:21;;;;;;;3.05;2.17;;;32.80;43.60;;;;;;6276819;28;20242;-62
2021/07/20 08:33:29;;;;;;;3.85;2.30;;;32.30;45.10;;;;;;6275870;28;20234;-60
2021/07/20 08:36:39;;;;;;;2.55;1.70;;;31.70;45.70;;;;;;6269071;28;20733;-62
2021/07/20 08:39:43;;;;;;;2.30;1.90;;;30.90;45.30;;;;;;6268368;28;20220;-63
2021/07/20 08:43:02;;;;;;;2.20;2.00;;;30.60;46.20;;;;;;6264218;28;20570;-63
2021/07/20 08:46:14;;;;;;;2.97;2.42;;;30.30;47.20;;;;;;6290925;28;20233;-62
2021/07/20 08:49:41;;;;;;;4.00;2.13;;;30.20;48.20;;;;;;6280917;28;20695;-64
2021/07/20 08:52:48;;;;;;;4.03;2.17;;;30.10;48.00;;;;;;6275863;28;20242;-67
2021/07/20 08:55:54;;;;;;;2.57;2.30;;;30.00;48.50;;;;;;6275711;28;20246;-65
2021/07/20 08:59:03;;;;;;;3.30;2.40;;;29.90;49.40;;;;;;6275793;28;20226;-65
2021/07/20 09:02:22;;;;;;;2.80;2.60;;;29.70;49.80;;;;;;6279757;28;20567;-66
2021/07/20 09:05:28;;;;;;;2.43;2.10;;;29.50;48.30;;;;;;6275795;28;20239;-67
2021/07/20 09:08:36;;;;;;;2.27;2.07;;;29.30;48.70;;;;;;6275243;28;20239;-66
2021/07/20 09:11:45;;;;;;;2.50;2.30;;;29.20;48.90;;;;;;6275207;28;20242;-65
2021/07/20 09:14:56;;;;;;;2.50;2.30;;;29.20;48.60;;;;;;6275001;28;20317;-68
2021/07/20 09:18:10;;;;;;;3.20;2.50;;;29.20;47.90;;;;;;6285864;28;20226;-70
2021/07/20 09:21:15;;;;;;;4.10;3.23;;;29.20;48.00;;;;;;6300173;28;20226;-68
2021/07/20 09:24:29;;;;;;;3.17;2.47;;;29.10;47.80;;;;;;6300184;28;20229;-65
2021/07/20 09:27:38;;;;;;;3.13;2.83;;;29.10;48.60;;;;;;6299916;28;20226;-68
2021/07/20 09:30:47;;;;;;;3.77;3.37;;;29.40;48.60;;;;;;6299957;28;20234;-65
2021/07/20 09:33:57;;;;;;;6.43;2.93;;;29.60;47.40;;;;;;6299613;28;20233;-63
2021/07/20 09:37:04;;;;;;;3.67;3.27;;;29.80;47.10;;;;;;6299279;28;20237;-63
2021/07/20 09:40:30;;;;;;;4.27;3.60;;;29.90;47.50;;;;;;6299503;28;20226;-62
2021/07/20 09:43:57;;;;;;;4.90;3.47;;;30.10;47.40;;;;;;6299235;28;20223;-63
2021/07/20 09:47:09;;;;;;;3.77;3.47;;;30.30;46.30;;;;;;6298254;28;20238;-63
2021/07/20 09:50:15;;;;;;;4.40;4.00;;;30.40;46.80;;;;;;6298545;28;20221;-63
2021/07/20 09:53:33;;;;;;;5.40;4.30;;;30.50;44.90;;;;;;6297640;28;20675;-63
2021/07/20 09:57:12;;;;;;;4.90;4.50;;;30.60;46.70;;;;;;6296504;28;20272;-63
2021/07/20 10:00:19;;;;;;;6.60;4.80;;;30.70;44.10;;;;;;6297807;28;20215;-63
2021/07/20 10:03:29;;;;;;;6.50;5.90;;;30.80;44.80;;;;;;6287471;28;20237;-63
2021/07/20 10:06:42;;;;;;;6.47;5.47;;;30.80;43.00;;;;;;6261704;28;20243;-62
2021/07/20 10:09:51;;;;;;;6.63;5.55;;;30.80;43.60;;;;;;6267694;28;20227;-66
2021/07/20 10:13:04;;;;;;;5.78;5.18;;;30.90;42.10;;;;;;6273908;28;20234;-67
2021/07/20 10:16:19;;;;;;;6.72;6.10;;;30.90;41.80;;;;;;6274193;28;20222;-66
2021/07/20 10:19:31;;;;;;;5.90;5.18;;;30.80;42.10;;;;;;6273809;28;20294;-68
2021/07/20 10:22:39;;;;;;;6.88;6.25;;;30.90;42.80;;;;;;6274086;28;20245;-67
2021/07/20 10:25:48;;;;;;;7.25;5.88;;;31.00;41.90;;;;;;6273170;28;20238;-67
2021/07/20 10:29:04;;;;;;;7.80;6.18;;;31.10;42.30;;;;;;6264691;28;20675;-68
2021/07/20 10:32:13;;;;;;;7.13;5.85;;;31.10;41.80;;;;;;6274282;28;20301;-66
2021/07/20 10:35:22;;;;;;;6.57;5.97;;;31.20;42.40;;;;;;6299125;28;20210;-66
2021/07/20 10:38:35;;;;;;;7.63;6.35;;;31.00;41.20;;;;;;6298483;28;20236;-66
2021/07/20 10:41:43;;;;;;;8.60;6.80;;;30.90;42.20;;;;;;6299057;28;20234;-66
2021/07/20 10:45:02;;;;;;;7.70;7.00;;;30.90;43.00;;;;;;6298350;28;20243;-66
2021/07/20 10:48:08;;;;;;;8.00;7.20;;;31.00;41.80;;;;;;6290263;28;20230;-66
2021/07/20 10:51:18;;;;;;;10.40;7.95;;;31.20;40.90;;;;;;6273743;28;20231;-66
2021/07/20 10:54:25;;;;;;;8.30;7.60;;;31.20;40.80;;;;;;6265041;28;20230;-67
2021/07/20 10:57:36;;;;;;;9.43;8.43;;;31.20;40.50;;;;;;6269090;28;20223;-66
2021/07/20 11:00:51;;;;;;;8.25;7.45;;;31.10;40.10;;;;;;6259174;28;20231;-67
2021/07/20 11:04:04;;;;;;;8.38;7.57;;;30.90;39.40;;;;;;6249486;28;20230;-66
2021/07/20 11:07:10;;;;;;;10.63;8.45;;;30.90;40.60;;;;;;6265987;28;20227;-67
2021/07/20 11:10:17;;;;;;;8.60;7.70;;;31.10;38.90;;;;;;6267602;28;20226;-66
2021/07/20 11:13:26;;;;;;;8.57;7.75;;;31.10;39.60;;;;;;6288937;28;20309;-67
2021/07/20 11:16:33;;;;;;;8.02;7.22;;;31.10;40.40;;;;;;6267218;28;20234;-66
2021/07/20 11:19:38;;;;;;;7.55;6.78;;;31.30;40.90;;;;;;6294274;28;20218;-68
2021/07/20 11:22:42;;;;;;;8.30;7.50;;;31.40;39.10;;;;;;6275114;28;20223;-68
2021/07/20 11:25:47;;;;;;;8.20;7.40;;;31.40;39.80;;;;;;6272509;28;20226;-67
2021/07/20 11:28:51;;;;;;;8.00;7.20;;;31.40;39.40;;;;;;6271220;28;20581;-68
2021/07/20 11:31:59;;;;;;;9.25;8.25;;;31.30;37.90;;;;;;6252498;28;20228;-67
2021/07/20 11:35:05;;;;;;;7.15;6.45;;;31.10;38.90;;;;;;6255605;28;20246;-67
2021/07/20 11:38:11;;;;;;;8.48;6.97;;;31.10;40.10;;;;;;6285613;28;20226;-66
2021/07/20 11:41:23;;;;;;;7.95;7.15;;;31.00;39.20;;;;;;6288323;28;20628;-67
2021/07/20 11:44:35;;;;;;;7.93;7.07;;;31.00;38.70;;;;;;6272829;28;20546;-67
2021/07/20 11:47:46;;;;;;;7.40;6.75;;;31.10;38.90;;;;;;6275597;28;20219;-66
2021/07/20 11:51:00;;;;;;;8.82;7.95;;;31.20;38.00;;;;;;6275232;28;20234;-67
2021/07/20 11:54:10;;;;;;;7.90;7.10;;;31.20;38.40;;;;;;6265152;28;20671;-67
2021/07/20 11:58:05;;;;;;;9.00;7.85;;;31.10;38.10;;;;;;6252386;28;20695;-68
2021/07/20 12:01:46;;;;;;;8.85;6.82;;;31.00;37.90;;;;;;6252602;28;20229;-68
2021/07/20 12:05:22;;;;;;;9.15;7.13;;;31.20;38.60;;;;;;6252563;28;20220;-68
2021/07/20 12:08:33;;;;;;;7.30;6.60;;;31.30;38.80;;;;;;6254846;28;20237;-66
2021/07/20 12:11:40;;;;;;;8.02;7.32;;;31.50;38.40;;;;;;6277086;28;20238;-67
2021/07/20 12:14:45;;;;;;;10.80;7.15;;;31.60;38.70;;;;;;6276885;28;20226;-68
2021/07/20 12:17:49;;;;;;;9.40;8.20;;;31.70;38.70;;;;;;6277063;28;20226;-66
2021/07/20 12:20:54;;;;;;;8.02;7.30;;;31.90;37.80;;;;;;6276354;28;20227;-68
2021/07/20 12:24:04;;;;;;;8.55;7.75;;;32.00;37.40;;;;;;6276834;28;20231;-64
2021/07/20 12:27:09;;;;;;;7.72;6.97;;;32.00;36.90;;;;;;6276263;28;20584;-64
2021/07/20 12:30:15;;;;;;;8.73;7.78;;;32.00;37.50;;;;;;6276865;28;20235;-64
2021/07/20 12:33:18;;;;;;;7.53;6.82;;;31.90;37.60;;;;;;6271687;28;20239;-64
2021/07/20 12:36:25;;;;;;;9.95;7.97;;;31.60;37.70;;;;;;6276129;28;20246;-64
2021/07/20 12:39:29;;;;;;;8.45;7.65;;;31.40;38.10;;;;;;6275935;28;20711;-67
2021/07/20 12:42:37;;;;;;;10.30;8.07;;;31.20;38.20;;;;;;6276240;28;20242;-68
2021/07/20 12:45:41;;;;;;;9.18;8.27;;;31.10;39.40;;;;;;6285600;28;20238;-67
2021/07/20 12:48:49;;;;;;;8.93;8.13;;;30.80;38.50;;;;;;6300384;28;20226;-66
2021/07/20 12:51:56;;;;;;;10.80;7.90;;;30.30;39.00;;;;;;6300403;28;20797;-66
2021/07/20 12:55:00;;;;;;;10.00;8.67;;;30.10;39.20;;;;;;6300669;28;20241;-67
2021/07/20 12:58:10;;;;;;;8.38;7.57;;;30.10;40.30;;;;;;6300605;28;20241;-66
2021/07/20 13:01:14;;;;;;;9.03;8.00;;;30.50;40.20;;;;;;6300511;28;20237;-66
2021/07/20 13:04:20;;;;;;;9.05;8.15;;;30.80;38.70;;;;;;6300496;28;20283;-65
2021/07/20 13:07:25;;;;;;;8.90;8.00;;;31.00;38.00;;;;;;6300108;28;20256;-67
2021/07/20 13:10:32;;;;;;;7.47;6.72;;;31.00;37.80;;;;;;6300264;28;20230;-65
2021/07/20 13:13:38;;;;;;;7.82;7.13;;;30.90;37.30;;;;;;6300026;28;20237;-67
2021/07/20 13:16:41;;;;;;;8.38;7.57;;;30.80;38.10;;;;;;6300079;28;20234;-64
2021/07/20 13:19:46;;;;;;;9.27;8.38;;;30.80;38.70;;;;;;6299884;28;20222;-67
2021/07/20 13:22:55;;;;;;;9.65;7.43;;;30.90;38.20;;;;;;6299598;28;20631;-66
2021/07/20 13:25:59;;;;;;;8.75;7.95;;;30.90;38.80;;;;;;6298956;28;20221;-66
2021/07/20 13:29:05;;;;;;;9.57;7.72;;;30.90;38.80;;;;;;6297012;28;20229;-67
2021/07/20 13:32:09;;;;;;;8.60;7.50;;;30.90;39.30;;;;;;6299176;28;20308;-67
2021/07/20 13:35:14;;;;;;;8.32;7.55;;;30.80;40.10;;;;;;6294207;28;20210;-66
2021/07/20 13:38:19;;;;;;;9.18;8.27;;;30.70;40.20;;;;;;6296796;28;20201;-67
2021/07/20 13:41:23;;;;;;;8.10;7.25;;;30.60;40.80;;;;;;6299156;28;20205;-67
2021/07/20 13:44:28;;;;;;;9.55;7.18;;;30.80;40.00;;;;;;6299006;28;20241;-68
2021/07/20 13:47:36;;;;;;;7.97;7.28;;;30.90;40.00;;;;;;6297964;28;20574;-65
2021/07/20 13:50:42;;;;;;;9.60;7.90;;;31.10;39.10;;;;;;6298808;28;20222;-69
2021/07/20 13:53:52;;;;;;;9.68;8.40;;;31.20;39.50;;;;;;6298618;28;20613;-66
2021/07/20 13:56:57;;;;;;;8.35;7.65;;;31.10;39.20;;;;;;6293621;28;20229;-68
2021/07/20 14:00:01;;;;;;;8.52;7.63;;;31.20;38.90;;;;;;6297915;28;20218;-63
2021/07/20 14:03:04;;;;;;;10.13;9.23;;;31.30;38.20;;;;;;6296285;28;20719;-67
2021/07/20 14:06:09;;;;;;;9.98;9.07;;;31.20;47.10;;;;;;6298584;28;20356;-67
2021/07/20 14:09:14;;;;;;;9.65;8.90;;;30.80;50.90;;;;;;6298571;28;20355;-66
2021/07/20 14:12:19;;;;;;;9.90;9.00;;;30.20;53.30;;;;;;6296678;28;20226;-67
2021/07/20 14:15:27;;;;;;;11.23;8.67;;;29.50;55.00;;;;;;6298197;28;20222;-65
2021/07/20 14:18:31;;;;;;;9.70;8.80;;;29.30;56.20;;;;;;6298341;28;20222;-69
2021/07/20 14:21:36;;;;;;;12.50;9.77;;;28.80;57.20;;;;;;6296036;28;20566;-68
2021/07/20 14:24:41;;;;;;;10.80;8.10;;;28.20;58.90;;;;;;6298284;28;20271;-65
2021/07/20 14:27:44;;;;;;;9.67;8.87;;;28.20;59.60;;;;;;6297828;28;20279;-64
2021/07/20 14:30:49;;;;;;;11.50;9.43;;;28.10;58.80;;;;;;6296084;28;20222;-65
2021/07/20 14:33:52;;;;;;;10.60;9.60;;;27.70;59.70;;;;;;6297986;28;20245;-65
2021/07/20 14:36:56;;;;;;;11.27;9.80;;;27.60;60.60;;;;;;6297633;28;20232;-64
2021/07/20 14:40:01;;;;;;;10.07;9.10;;;27.50;61.70;;;;;;6298094;28;20536;-64
2021/07/20 14:43:06;;;;;;;13.43;10.10;;;27.50;62.30;;;;;;6295748;28;20789;-64
2021/07/20 14:46:12;;;;;;;10.23;9.00;;;27.50;62.90;;;;;;6297709;28;20226;-63
2021/07/20 14:49:22;;;;;;;10.90;9.87;;;27.70;63.00;;;;;;6297413;28;20248;-64
2021/07/20 14:52:25;;;;;;;10.37;9.37;;;27.60;63.20;;;;;;6296801;28;20571;-65
2021/07/20 14:55:36;;;;;;;11.73;10.63;;;27.60;63.30;;;;;;6297436;28;20236;-63
2021/07/20 14:58:45;;;;;;;9.60;8.63;;;27.60;63.20;;;;;;6297017;28;20222;-64
2021/07/20 15:01:49;;;;;;;9.17;8.27;;;27.70;63.40;;;;;;6295576;28;20563;-64
2021/07/20 15:05:22;;;;;;;9.47;8.67;;;27.80;62.70;;;;;;6296466;28;20207;-64
2021/07/20 15:08:26;;;;;;;10.60;9.70;;;27.40;63.90;;;;;;6296561;28;20710;-64
2021/07/20 15:11:41;;;;;;;11.37;9.10;;;27.10;65.30;;;;;;6301584;28;20240;-65
2021/07/20 15:14:46;;;;;;;10.90;9.00;;;26.90;66.50;;;;;;6299667;28;20533;-63
2021/07/20 15:17:49;;;;;;;10.63;9.70;;;27.00;66.90;;;;;;6298276;28;20705;-65
2021/07/20 15:20:54;;;;;;;11.30;10.10;;;27.00;66.60;;;;;;6302179;28;20218;-64
2021/07/20 15:23:58;;;;;;;10.63;9.53;;;26.90;66.80;;;;;;6302546;28;20652;-64
2021/07/20 15:27:08;;;;;;;10.40;9.40;;;27.00;67.40;;;;;;6301675;28;20222;-64
2021/07/20 15:30:15;;;;;;;9.90;9.00;;;27.30;65.80;;;;;;6302272;28;20222;-66
2021/07/20 15:33:18;;;;;;;10.57;9.57;;;27.30;65.60;;;;;;6300074;28;20226;-69
2021/07/20 15:36:23;;;;;;;12.30;8.93;;;27.30;65.70;;;;;;6301791;28;20698;-63
2021/07/20 15:39:26;;;;;;;9.23;8.30;;;27.10;66.00;;;;;;6301680;28;20241;-69
2021/07/20 15:42:37;;;;;;;8.97;8.07;;;27.20;65.80;;;;;;6301870;28;20237;-63
2021/07/20 15:45:41;;;;;;;10.37;9.10;;;27.20;65.70;;;;;;6300454;28;20223;-68
2021/07/20 15:48:45;;;;;;;11.00;9.97;;;27.50;65.90;;;;;;6301902;28;20225;-69
2021/07/20 15:51:49;;;;;;;11.47;10.37;;;27.60;64.60;;;;;;6299392;28;20244;-70
2021/07/20 15:54:53;;;;;;;10.50;8.87;;;27.60;64.80;;;;;;6301708;28;20222;-68
2021/07/20 15:58:01;;;;;;;11.57;8.90;;;27.70;65.00;;;;;;6301393;28;20225;-70
2021/07/20 16:01:05;;;;;;;12.00;9.80;;;27.50;64.10;;;;;;6300130;28;20241;-68
2021/07/20 16:04:09;;;;;;;11.10;9.50;;;27.20;65.30;;;;;;6301399;28;20400;-69
2021/07/20 16:07:13;;;;;;;9.73;8.57;;;27.10;65.80;;;;;;6301291;28;20225;-70
2021/07/20 16:10:18;;;;;;;10.07;9.03;;;26.90;66.50;;;;;;6299117;28;20566;-69
2021/07/20 16:13:23;;;;;;;9.53;8.70;;;26.80;67.10;;;;;;6297481;28;20237;-70